Flight Track Log - Related Links

Times and Time Zones

All times are in EDT time to prevent confusion due to time zone crossing. See the N1455R flight status page for this flight to view local times or setup timezone preferences in your user account.


Time Position Orientation Groundspeed Altitude Reporting Facility
EDT Latitude Longitude Course Direction KTS MPH feet Rate Location/Type
Fri 04:57:00 PM 41.3473 -72.0709 312° West  Level FlightAware Approximate
Fri 04:58:00 PM 41.3645 -72.0967 312° West  Level FlightAware Approximate
Fri 04:59:00 PM 41.3817 -72.1225 312° West  Level FlightAware Approximate
Fri 05:00:00 PM 41.3989 -72.1483 312° West  Level FlightAware Approximate
Fri 05:01:00 PM 41.4048 -72.1596 304° West  Level FlightAware Approximate
Fri 05:02:00 PM 41.4197 -72.1878 312° West  Level FlightAware Approximate
Fri 05:03:00 PM 41.4369 -72.2136 312° West  Level FlightAware Approximate
Fri 05:04:00 PM 41.4538 -72.2397 309° West  Level FlightAware Approximate
Fri 05:05:00 PM 41.4700 -72.2667 309° West  Level FlightAware Approximate
Fri 05:06:00 PM 41.4862 -72.2937 309° West  Level FlightAware Approximate
Fri 05:07:00 PM 41.5021 -72.3210 304° West  Level FlightAware Approximate
Fri 05:08:00 PM 41.5165 -72.3497 304° West  Level FlightAware Approximate
Fri 05:09:00 PM 41.5333 -72.3761 310° West  Level FlightAware Approximate
Fri 05:10:00 PM 41.5501 -72.4024 310° West  Level FlightAware Approximate
Fri 05:11:00 PM 41.5669 -72.4288 310° West  Level FlightAware Approximate
Fri 05:12:00 PM 41.5837 -72.4552 310° West  Level FlightAware Approximate
Fri 05:13:00 PM 41.6004 -72.4816 310° West  Level FlightAware Approximate
Fri 05:14:00 PM 41.6172 -72.5079 310° West  Level FlightAware Approximate
Fri 05:15:00 PM 41.6326 -72.5342 222° Southwest  Level FlightAware Approximate
Fri 05:16:00 PM 41.6133 -72.5574 222° Southwest  Level FlightAware Approximate
Fri 05:17:00 PM 41.5941 -72.5806 222° Southwest  Level FlightAware Approximate
Fri 05:18:00 PM 41.5748 -72.6037 222° Southwest  Level FlightAware Approximate
Fri 05:19:00 PM 41.5555 -72.6269 222° Southwest  Level FlightAware Approximate
Fri 05:20:00 PM 41.5363 -72.6500 222° Southwest  Level FlightAware Approximate
Fri 05:21:00 PM 41.5170 -72.6731 222° Southwest  Level FlightAware Approximate
Fri 05:22:00 PM 41.4977 -72.6962 222° Southwest  Level FlightAware Approximate
Fri 05:23:00 PM 41.4784 -72.7193 222° Southwest  Level FlightAware Approximate
Fri 05:24:00 PM 41.4591 -72.7424 222° Southwest  Level FlightAware Approximate
Fri 05:25:00 PM 41.4399 -72.7655 222° Southwest  Level FlightAware Approximate
Fri 05:26:00 PM 41.4206 -72.7886 222° Southwest  Level FlightAware Approximate
Fri 05:27:00 PM 41.4014 -72.8117 222° Southwest  Level FlightAware Approximate
Fri 05:28:00 PM 41.3831 -72.8355 262° West  Level FlightAware Approximate
Fri 05:29:00 PM 41.3797 -72.8697 262° West  Level FlightAware Approximate
Fri 05:30:00 PM 41.3763 -72.9039 262° West  Level FlightAware Approximate
Fri 05:31:00 PM 41.3729 -72.9382 262° West  Level FlightAware Approximate
Fri 05:32:00 PM 41.3694 -72.9724 262° West  Level FlightAware Approximate
Fri 05:33:00 PM 41.3655 -73.0064 256° West  Level FlightAware Approximate
Fri 05:34:00 PM 41.3592 -73.0399 256° West  Level FlightAware Approximate
Fri 05:35:00 PM 41.3530 -73.0734 256° West  Level FlightAware Approximate
Fri 05:36:00 PM 41.3467 -73.1069 256° West  Level FlightAware Approximate
Fri 05:37:00 PM 41.3404 -73.1404 256° West  Level FlightAware Approximate
Fri 05:38:00 PM 41.3341 -73.1739 256° West  Level FlightAware Approximate
Fri 05:39:00 PM 41.3279 -73.2073 256° West  Level FlightAware Approximate
Fri 05:40:00 PM 41.3215 -73.2408 256° West  Level FlightAware Approximate
Fri 05:41:00 PM 41.3154 -73.2743 258° West  Level FlightAware Approximate
Fri 05:42:00 PM 41.3098 -73.3080 258° West  Level FlightAware Approximate
Fri 05:43:00 PM 41.3043 -73.3416 258° West  Level FlightAware Approximate
Fri 05:44:00 PM 41.2987 -73.3753 258° West  Level FlightAware Approximate
Fri 05:45:00 PM 41.2931 -73.4090 258° West  Level FlightAware Approximate
Fri 05:46:00 PM 41.2875 -73.4426 257° West  Level FlightAware Approximate
Fri 05:47:00 PM 41.2818 -73.4763 257° West  Level FlightAware Approximate
Fri 05:48:00 PM 41.2762 -73.5099 257° West  Level FlightAware Approximate
Fri 05:49:00 PM 41.2705 -73.5435 257° West  Level FlightAware Approximate
Fri 05:50:00 PM 41.2661 -73.5774 266° West  Level FlightAware Approximate
Fri 05:51:00 PM 41.2644 -73.6118 266° West  Level FlightAware Approximate
Fri 05:52:00 PM 41.2626 -73.6462 266° West  Level FlightAware Approximate
Fri 05:53:00 PM 41.2608 -73.6805 266° West  Level FlightAware Approximate
Fri 05:54:00 PM 41.2590 -73.7149 266° West  Level FlightAware Approximate
Fri 05:55:00 PM 41.2572 -73.7493 266° West  Level FlightAware Approximate
Fri 05:55:45 PM 41.3203 -72.0586 270° West 76 87 500  Level Boston Center
Fri 05:56:00 PM 41.2553 -73.7837 266° West  Level FlightAware Approximate
Fri 05:56:58 PM 41.3411 -72.0944 308° West 95 109 1,600  Level Boston Center
Fri 05:57:00 PM 41.2535 -73.8180 266° West  Level FlightAware Approximate
Fri 05:57:53 PM 41.3578 -72.1111 323° Northwest 95 109 2,300  Level Boston Center
Fri 05:58:00 PM 41.2517 -73.8524 266° West  Level FlightAware Approximate
Fri 05:58:54 PM 41.3789 -72.1331 322° Northwest 86 99 3,100  Level Boston Center
Fri 05:59:00 PM 41.2492 -73.8866 252° West  Level FlightAware Approximate
Fri 05:59:55 PM 41.3956 -72.1578 312° West 85 98 3,800  Level Boston Center
Fri 06:00:00 PM 41.2410 -73.9193 252° West  Level FlightAware Approximate
Fri 06:00:55 PM 41.4103 -72.1800 311° West 79 91 4,500  Level Boston Center
Fri 06:01:00 PM 41.2333 -73.9521 270° West  Level FlightAware Approximate
Fri 06:01:50 PM 41.4247 -72.2019 311° West 84 97 5,100  Level Boston Center
Fri 06:02:34 PM 41.4353 -72.2186 310° West 88 101 5,600 667 Climbing Boston Center
Fri 06:03:11 PM 41.4458 -72.2353 310° West 90 104 6,000 652 Climbing Boston Center
Fri 06:04:06 PM 41.4583 -72.2572 307° West 87 100 6,600 678 Climbing Boston Center
Fri 06:05:06 PM 41.4708 -72.2822 304° West 80 92 7,300 645 Climbing Boston Center
Fri 06:06:07 PM 41.4894 -72.3042 319° Northwest 91 105 7,900 344 Climbing Boston Center
Fri 06:07:08 PM 41.5106 -72.3403 308° West 129 148 8,000 49 Climbing Boston Center
Fri 06:08:09 PM 41.5356 -72.3792 311° West 128 147 8,000  Level Boston Center
Fri 06:09:10 PM 41.5564 -72.4153 308° West 123 142 8,000  Level Boston Center
Fri 06:10:05 PM 41.5625 -72.4511 283° West 117 135 8,000  Level Boston Center
Fri 06:11:06 PM 41.5522 -72.4928 252° West 118 136 8,000 -249 Level Boston Center
Fri 06:12:54 PM 41.5333 -72.5667 251° West 140 161 7,300 -429 Descending New York TRACON
Fri 06:13:54 PM 41.5167 -72.6167 246° West 135 155 6,800 -500 Descending New York TRACON
Fri 06:14:54 PM 41.5167 -72.6667 270° West 137 158 6,300 -400 Descending New York TRACON
Fri 06:15:54 PM 41.5000 -72.7167 246° West 132 152 6,000 -150 Descending New York TRACON
Fri 06:16:54 PM 41.4833 -72.7500 236° Southwest 107 123 6,000  Level New York TRACON
Fri 06:17:54 PM 41.4833 -72.8000 270° West 117 135 6,000  Level New York TRACON
Fri 06:18:54 PM 41.4667 -72.8333 236° Southwest 120 138 6,000  Level New York TRACON
Fri 06:19:54 PM 41.4500 -72.8833 246° West 114 131 6,000  Level New York TRACON
Fri 06:20:54 PM 41.4500 -72.9167 270° West 124 143 6,000  Level New York TRACON
Fri 06:21:54 PM 41.4333 -72.9667 246° West 117 135 6,000  Level New York TRACON
Fri 06:22:54 PM 41.4333 -73.0000 270° West 119 137 6,000  Level New York TRACON
Fri 06:23:54 PM 41.4167 -73.0333 236° Southwest 116 133 6,000  Level New York TRACON
Fri 06:24:54 PM 41.4000 -73.0833 246° West 108 124 6,000  Level New York TRACON
Fri 06:25:54 PM 41.4000 -73.1167 270° West 114 131 6,000  Level New York TRACON
Fri 06:26:54 PM 41.3833 -73.1500 236° Southwest 113 130 6,000  Level New York TRACON
Fri 06:27:54 PM 41.3833 -73.2000 270° West 113 130 6,000  Level New York TRACON
Fri 06:28:54 PM 41.3667 -73.2333 236° Southwest 111 128 6,000  Level New York TRACON
Fri 06:29:54 PM 41.3500 -73.2833 246° West 116 133 6,000  Level New York TRACON
Fri 06:30:54 PM 41.3500 -73.3167 270° West 115 132 6,000 50 Level New York TRACON
Fri 06:31:54 PM 41.3333 -73.3667 246° West 111 128 6,100 50 Climbing New York TRACON
Fri 06:32:54 PM 41.3333 -73.4000 270° West 110 127 6,100 -50 Level New York TRACON
Fri 06:33:54 PM 41.3167 -73.4333 236° Southwest 116 133 6,000 -50 Descending New York TRACON
Fri 06:34:54 PM 41.3000 -73.4833 246° West 118 136 6,000  Level New York TRACON
Fri 06:35:54 PM 41.3000 -73.5167 270° West 110 127 6,000  Level New York TRACON
Fri 06:36:54 PM 41.2833 -73.5500 236° Southwest 114 131 6,000 -100 Level New York TRACON
Fri 06:37:54 PM 41.2833 -73.6000 270° West 123 142 5,800 -250 Descending New York TRACON
Fri 06:38:54 PM 41.2667 -73.6500 246° West 123 142 5,500 -300 Descending New York TRACON
Fri 06:39:54 PM 41.2667 -73.6833 270° West 123 142 5,200 -200 Descending New York TRACON
Fri 06:40:54 PM 41.2667 -73.7333 270° West 118 136 5,100 -100 Descending New York TRACON
Fri 06:41:54 PM 41.2667 -73.7833 270° West 119 137 5,000 -150 Descending New York TRACON
Fri 06:42:54 PM 41.2500 -73.8167 236° Southwest 127 146 4,800 -350 Descending New York TRACON
Fri 06:43:54 PM 41.2500 -73.8667 270° West 132 152 4,300 -400 Descending New York TRACON
Fri 06:44:54 PM 41.2500 -73.9167 270° West 131 151 4,000 -150 Descending New York TRACON
Fri 06:45:54 PM 41.2500 -73.9667 270° West 117 135 4,000  Level New York TRACON
Fri 06:46:54 PM 41.2333 -74.0000 236° Southwest 115 132 4,000  Level New York TRACON
Fri 06:47:54 PM 41.2167 -74.0333 236° Southwest 115 132 4,000 -200 Level New York TRACON
Fri 06:48:54 PM 41.1833 -74.0500 201° Southwest 127 146 3,600 -450 Descending New York TRACON
Fri 06:49:54 PM 41.1500 -74.0833 217° Southwest 139 160 3,100 -250 Descending New York TRACON
Fri 06:50:54 PM 41.1333 -74.1000 217° Southwest 121 139 3,100 -50 Level New York TRACON
Fri 06:51:54 PM 41.1000 -74.1333 217° Southwest 125 144 3,000 -50 Descending New York TRACON
Fri 06:52:54 PM 41.0833 -74.1500 217° Southwest 116 133 3,000 -50 Level New York TRACON
Fri 06:53:54 PM 41.0500 -74.1833 217° Southwest 117 135 2,900 -300 Descending New York TRACON
Fri 06:54:54 PM 41.0167 -74.2000 201° Southwest 126 145 2,400 -400 Descending New York TRACON
Fri 06:55:54 PM 41.0000 -74.2333 236° Southwest 120 138 2,100 -200 Descending New York TRACON
Fri 06:56:54 PM 40.9667 -74.2500 201° Southwest 109 125 2,000 -50 Descending New York TRACON
Fri 06:57:54 PM 40.9500 -74.2667 217° Southwest 103 119 2,000  Level New York TRACON
Fri 06:58:54 PM 40.9167 -74.3000 217° Southwest 102 117 2,000  Level New York TRACON
Fri 06:59:48 PM 40.9000 -74.3167 217° Southwest 107 123 2,000  Level New York TRACON
Fri 07:00:54 PM 40.8833 -74.3333 217° Southwest 107 123 2,000 -286 Level New York TRACON
Fri 07:01:54 PM 40.8500 -74.3667 217° Southwest 109 125 1,400 -600 Descending New York TRACON
Fri 07:04:00 PM 40.8152 -74.3841 201° Southwest  Level FlightAware Approximate

Login

Don't have an account? Register now (free) for customized features, flight alerts, and more!